createdAt,value
2019-01-09T00:02:14.167Z,6.66
2019-01-09T00:04:43.279Z,6.63
2019-01-09T00:07:12.435Z,6.64
2019-01-09T00:09:41.551Z,6.67
2019-01-09T00:12:11.320Z,6.73
2019-01-09T00:14:40.480Z,6.74
2019-01-09T00:17:09.653Z,6.74
2019-01-09T00:19:38.810Z,6.74
2019-01-09T00:22:08.034Z,6.76
2019-01-09T00:24:37.437Z,6.79
2019-01-09T00:27:06.504Z,6.84
2019-01-09T00:29:35.787Z,6.86
2019-01-09T00:32:04.910Z,6.91
2019-01-09T00:34:33.991Z,6.96
2019-01-09T00:37:03.130Z,7.03
2019-01-09T00:39:32.939Z,7.09
2019-01-09T00:42:02.343Z,7.14
2019-01-09T00:44:31.483Z,7.18
2019-01-09T00:47:00.696Z,7.22
2019-01-09T00:49:29.839Z,7.27
2019-01-09T00:51:59.034Z,7.30
2019-01-09T00:54:28.543Z,7.35
2019-01-09T00:56:57.790Z,7.38
2019-01-09T00:59:27.398Z,7.40
2019-01-09T01:04:13.690Z,7.41
2019-01-09T01:06:53.673Z,7.43
2019-01-09T01:09:44.473Z,7.43
2019-01-09T01:12:29.082Z,7.48
2019-01-09T01:27:13.777Z,7.50
2019-01-09T01:30:00.588Z,7.49
2019-01-09T01:33:14.314Z,7.48
2019-01-09T01:35:54.841Z,7.47
2019-01-09T01:38:34.521Z,7.43
2019-01-09T01:42:20.429Z,7.39
2019-01-09T01:45:04.553Z,7.34
2019-01-09T01:47:45.143Z,7.30
2019-01-09T01:50:30.503Z,7.27
2019-01-09T01:54:12.113Z,7.22
2019-01-09T01:57:06.903Z,7.21
2019-01-09T01:59:52.795Z,7.19
2019-01-09T02:04:11.253Z,7.16
2019-01-09T02:06:50.891Z,7.09
2019-01-09T02:09:32.672Z,7.02
2019-01-09T02:12:09.788Z,6.94
2019-01-09T02:19:02.459Z,6.87
2019-01-09T02:21:49.238Z,6.64
2019-01-09T02:27:31.489Z,6.56
2019-01-09T02:31:17.293Z,6.41
2019-01-09T02:33:46.549Z,6.30
2019-01-09T02:36:16.624Z,6.24
2019-01-09T02:38:45.818Z,6.20
2019-01-09T02:41:14.908Z,6.15
2019-01-09T02:43:44.255Z,6.12
2019-01-09T02:46:13.378Z,6.05
2019-01-09T02:48:42.484Z,6.00
2019-01-09T02:51:12.224Z,5.98
2019-01-09T02:53:41.456Z,5.94
2019-01-09T02:56:10.581Z,5.92
2019-01-09T02:58:39.753Z,5.91
2019-01-09T03:01:08.846Z,5.87
2019-01-09T03:03:38.050Z,5.79
2019-01-09T03:06:07.147Z,5.71
2019-01-09T03:08:36.297Z,5.68
2019-01-09T03:11:05.716Z,5.65
2019-01-09T03:13:34.852Z,5.60
2019-01-09T03:16:04.141Z,5.53
2019-01-09T03:18:34.112Z,5.49
2019-01-09T03:21:03.216Z,5.43
2019-01-09T03:23:32.895Z,5.37
2019-01-09T03:26:01.987Z,5.37
2019-01-09T03:28:31.062Z,5.40
2019-01-09T03:31:00.154Z,5.43
2019-01-09T03:33:29.305Z,5.45
2019-01-09T03:35:58.580Z,5.42
2019-01-09T03:38:27.706Z,5.37
2019-01-09T03:40:58.593Z,5.30
2019-01-09T03:43:28.673Z,5.27
2019-01-09T03:45:58.636Z,5.26
2019-01-09T03:48:28.296Z,5.23
2019-01-09T03:50:58.324Z,5.20
2019-01-09T03:53:27.598Z,5.20
2019-01-09T03:55:57.477Z,5.20
2019-01-09T03:58:26.743Z,5.21
2019-01-09T04:00:55.835Z,5.16
2019-01-09T04:03:24.889Z,5.16
2019-01-09T04:05:54.444Z,5.12
2019-01-09T04:08:23.594Z,5.10
2019-01-09T04:10:52.813Z,5.07
2019-01-09T04:13:22.080Z,5.06
2019-01-09T04:15:51.166Z,5.06
2019-01-09T04:18:20.259Z,5.01
2019-01-09T04:20:49.407Z,4.97
2019-01-09T04:23:18.496Z,4.94
2019-01-09T04:25:47.600Z,4.91
2019-01-09T04:28:16.686Z,4.87
2019-01-09T04:30:45.803Z,4.87
2019-01-09T04:33:15.085Z,4.89
2019-01-09T04:35:45.009Z,4.94
2019-01-09T04:38:14.167Z,5.01
2019-01-09T04:40:43.305Z,5.07
2019-01-09T04:43:12.402Z,5.07
2019-01-09T04:45:41.667Z,5.02
2019-01-09T04:48:10.744Z,4.99
2019-01-09T04:50:39.826Z,4.98
2019-01-09T04:53:08.959Z,4.99
2019-01-09T04:55:38.189Z,5.02
2019-01-09T04:58:07.306Z,4.99
2019-01-09T05:00:36.452Z,4.98
2019-01-09T05:03:05.751Z,5.02
2019-01-09T05:05:35.675Z,5.09
2019-01-09T05:08:04.914Z,5.15
2019-01-09T05:10:34.212Z,5.16
2019-01-09T05:13:03.311Z,5.13
2019-01-09T05:15:32.403Z,5.11
2019-01-09T05:18:01.464Z,5.12
2019-01-09T05:20:30.837Z,5.17
2019-01-09T05:22:59.914Z,5.25
2019-01-09T05:25:29.620Z,5.26
2019-01-09T05:27:58.828Z,5.31
2019-01-09T05:30:27.999Z,5.43
2019-01-09T05:32:57.174Z,5.54
2019-01-09T05:35:26.300Z,5.65
2019-01-09T05:37:55.024Z,5.76
2019-01-09T05:40:24.092Z,5.86
2019-01-09T05:42:53.141Z,5.95
2019-01-09T05:45:25.266Z,6.04
2019-01-09T05:47:54.355Z,6.13
2019-01-09T05:50:23.548Z,6.20
2019-01-09T05:52:52.719Z,6.27
2019-01-09T05:55:21.950Z,6.34
2019-01-09T05:57:51.041Z,6.44
2019-01-09T06:00:20.241Z,6.53
2019-01-09T06:02:49.322Z,6.61
2019-01-09T06:05:18.600Z,6.68
2019-01-09T06:07:47.694Z,6.77
2019-01-09T06:10:17.033Z,6.86
2019-01-09T06:12:46.374Z,6.93
2019-01-09T06:15:15.548Z,7.00
2019-01-09T06:17:44.711Z,7.08
2019-01-09T06:20:14.532Z,7.13
2019-01-09T06:22:43.844Z,7.17
2019-01-09T06:25:13.022Z,7.18
2019-01-09T06:27:44.798Z,7.18
2019-01-09T06:30:14.093Z,7.19
2019-01-09T06:32:43.225Z,7.17
2019-01-09T06:35:12.505Z,7.17
2019-01-09T06:37:41.621Z,7.16
2019-01-09T06:40:10.820Z,7.16
2019-01-09T06:42:39.899Z,7.16
2019-01-09T06:45:09.191Z,7.15
2019-01-09T06:47:38.399Z,7.15
2019-01-09T06:50:11.649Z,7.12
2019-01-09T06:52:40.828Z,7.10
2019-01-09T06:55:09.956Z,7.07
2019-01-09T06:57:39.075Z,7.05
2019-01-09T07:00:10.324Z,7.00
2019-01-09T07:02:39.620Z,6.96
2019-01-09T07:05:08.699Z,6.92
2019-01-09T07:07:37.782Z,6.88
2019-01-09T07:10:07.302Z,6.82
2019-01-09T07:12:37.744Z,6.78
2019-01-09T07:15:11.626Z,6.75
2019-01-09T07:20:32.651Z,6.68
2019-01-09T07:23:02.810Z,6.64
2019-01-09T07:25:33.593Z,6.62
2019-01-09T07:28:03.274Z,6.58
2019-01-09T07:30:33.787Z,6.55
2019-01-09T07:33:08.261Z,6.54
2019-01-09T07:35:38.427Z,6.52
2019-01-09T07:38:07.541Z,6.48
2019-01-09T07:40:36.709Z,6.44
2019-01-09T07:43:05.929Z,6.40
2019-01-09T07:45:36.539Z,6.36
2019-01-09T07:48:05.681Z,6.33
2019-01-09T07:50:35.020Z,6.29
2019-01-09T07:53:04.868Z,6.25
2019-01-09T07:55:34.005Z,6.22
2019-01-09T07:58:03.085Z,6.17
2019-01-09T08:00:32.243Z,6.14
2019-01-09T08:03:01.564Z,6.12
2019-01-09T08:05:30.640Z,6.09
2019-01-09T08:08:00.261Z,6.10
2019-01-09T08:10:30.118Z,6.09
2019-01-09T08:13:00.731Z,6.06
2019-01-09T08:15:29.953Z,6.03
2019-01-09T08:17:59.173Z,5.99
2019-01-09T08:20:28.265Z,5.94
2019-01-09T08:22:57.367Z,5.89
2019-01-09T08:25:27.414Z,5.83
2019-01-09T08:27:57.083Z,5.77
2019-01-09T08:30:26.351Z,5.72
2019-01-09T08:32:58.006Z,5.68
2019-01-09T08:35:27.369Z,5.63
2019-01-09T08:38:02.633Z,5.61
2019-01-09T08:40:27.226Z,5.58
2019-01-09T08:42:57.763Z,5.52
2019-01-09T08:45:27.695Z,5.48
2019-01-09T08:47:58.823Z,5.47
2019-01-09T08:50:28.068Z,5.48
2019-01-09T08:52:57.726Z,5.48
2019-01-09T08:55:26.842Z,5.47
2019-01-09T08:57:56.021Z,5.46
2019-01-09T09:00:25.423Z,5.46
2019-01-09T09:02:55.112Z,5.46
2019-01-09T09:05:24.786Z,5.46
2019-01-09T09:08:00.247Z,5.42
2019-01-09T09:10:29.372Z,5.42
2019-01-09T09:12:58.708Z,5.41
2019-01-09T09:15:29.079Z,5.42
2019-01-09T09:17:58.313Z,5.44
2019-01-09T09:20:27.523Z,5.45
2019-01-09T09:22:56.763Z,5.42
2019-01-09T09:25:26.639Z,5.43
2019-01-09T09:27:55.915Z,5.42
2019-01-09T09:30:25.169Z,5.42
2019-01-09T09:32:54.312Z,5.45
2019-01-09T09:35:23.773Z,5.47
2019-01-09T09:37:54.579Z,5.48
2019-01-09T09:40:24.187Z,5.52
2019-01-09T09:42:53.405Z,5.54
2019-01-09T09:45:22.886Z,5.57
2019-01-09T09:47:52.455Z,5.60
2019-01-09T09:50:22.224Z,5.64
2019-01-09T09:52:51.360Z,5.67
2019-01-09T09:55:20.558Z,5.72
2019-01-09T09:57:50.055Z,5.76
2019-01-09T10:00:22.322Z,5.81
2019-01-09T10:02:52.005Z,5.86
2019-01-09T10:05:21.470Z,5.88
2019-01-09T10:07:50.894Z,5.89
2019-01-09T10:10:20.209Z,5.91
2019-01-09T10:12:50.543Z,5.97
2019-01-09T10:15:20.259Z,6.01
2019-01-09T10:17:49.509Z,6.06
2019-01-09T10:20:18.925Z,6.13
2019-01-09T10:22:49.017Z,6.18
2019-01-09T10:25:18.314Z,6.22
2019-01-09T10:27:47.604Z,6.27
2019-01-09T10:30:18.353Z,6.31
2019-01-09T10:32:47.681Z,6.36
2019-01-09T10:35:16.977Z,6.40
2019-01-09T10:37:47.410Z,6.45
2019-01-09T10:40:18.011Z,6.52
2019-01-09T10:42:47.359Z,6.58
2019-01-09T10:45:18.765Z,6.64
2019-01-09T10:47:48.170Z,6.71
2019-01-09T10:50:17.556Z,6.79
2019-01-09T10:52:46.889Z,6.87
2019-01-09T10:55:16.841Z,6.95
2019-01-09T10:57:46.070Z,7.01
2019-01-09T11:00:21.100Z,7.05
2019-01-09T11:02:50.400Z,7.10
2019-01-09T11:05:19.801Z,7.13
2019-01-09T11:07:49.003Z,7.17
2019-01-09T11:10:18.790Z,7.20
2019-01-09T11:12:48.947Z,7.24
2019-01-09T11:15:18.163Z,7.24
2019-01-09T11:17:47.315Z,7.24
2019-01-09T11:20:23.793Z,7.26
2019-01-09T11:22:54.612Z,7.28
2019-01-09T11:25:27.205Z,7.28
2019-01-09T11:27:56.419Z,7.30
2019-01-09T11:30:25.555Z,7.35
2019-01-09T11:32:56.221Z,7.38
2019-01-09T11:35:26.325Z,7.40
2019-01-09T11:37:55.859Z,7.40
2019-01-09T11:40:25.335Z,7.43
2019-01-09T11:42:55.418Z,7.44
2019-01-09T11:45:24.776Z,7.44
2019-01-09T11:47:55.055Z,7.44
2019-01-09T11:50:24.854Z,7.47
2019-01-09T11:52:54.836Z,7.46
2019-01-09T11:55:23.999Z,7.48
2019-01-09T11:57:53.785Z,7.51
2019-01-09T12:00:25.801Z,7.52
2019-01-09T12:02:55.101Z,7.53
2019-01-09T12:05:24.503Z,7.54
2019-01-09T12:07:55.312Z,7.55
2019-01-09T12:10:30.231Z,7.57
2019-01-09T12:12:54.993Z,7.57
2019-01-09T12:15:24.319Z,7.56
2019-01-09T12:17:53.517Z,7.57
2019-01-09T12:20:22.747Z,7.55
2019-01-09T12:22:51.911Z,7.54
2019-01-09T12:25:21.220Z,7.55
2019-01-09T12:27:50.541Z,7.57
2019-01-09T12:30:22.537Z,7.55
2019-01-09T12:32:52.697Z,7.54
2019-01-09T12:35:22.080Z,7.54
2019-01-09T12:37:51.231Z,7.52
2019-01-09T12:40:20.528Z,7.53
2019-01-09T12:42:49.825Z,7.56
2019-01-09T12:45:19.615Z,7.58
2019-01-09T12:47:49.046Z,7.58
2019-01-09T12:50:21.847Z,7.59
2019-01-09T12:52:52.652Z,7.57
2019-01-09T12:55:21.172Z,7.55
2019-01-09T12:57:50.409Z,7.56
2019-01-09T13:00:23.957Z,7.57
2019-01-09T13:02:53.819Z,7.58
2019-01-09T13:05:23.414Z,7.58
2019-01-09T13:07:52.929Z,7.58
2019-01-09T13:10:22.229Z,7.57
2019-01-09T13:12:52.847Z,7.56
2019-01-09T13:15:22.141Z,7.57
2019-01-09T13:17:51.277Z,7.57
2019-01-09T13:20:20.693Z,7.60
2019-01-09T13:22:50.816Z,7.59
2019-01-09T13:25:20.665Z,7.59
2019-01-09T13:27:51.193Z,7.59
2019-01-09T13:30:22.735Z,7.58
2019-01-09T13:32:55.729Z,7.57
2019-01-09T13:35:24.902Z,7.56
2019-01-09T13:37:54.487Z,7.58
2019-01-09T13:40:24.082Z,7.60
2019-01-09T13:42:54.237Z,7.61
2019-01-09T13:45:23.707Z,7.61
2019-01-09T13:47:53.007Z,7.63
2019-01-09T13:50:22.331Z,7.62
2019-01-09T13:52:51.563Z,7.64
2019-01-09T13:55:21.206Z,7.64
2019-01-09T13:57:50.458Z,7.65
2019-01-09T14:00:22.284Z,7.66
2019-01-09T14:02:51.769Z,7.67
2019-01-09T14:05:20.949Z,7.68
2019-01-09T14:07:50.145Z,7.69
2019-01-09T14:10:22.492Z,7.71
2019-01-09T14:12:51.667Z,7.71
2019-01-09T14:15:21.709Z,7.70
2019-01-09T14:17:51.271Z,7.70
2019-01-09T14:20:20.461Z,7.71
2019-01-09T14:22:49.823Z,7.72
2019-01-09T14:25:19.824Z,7.73
2019-01-09T14:27:49.203Z,7.74
2019-01-09T14:30:22.805Z,7.74
2019-01-09T14:35:25.490Z,7.74
2019-01-09T14:37:54.644Z,7.75
2019-01-09T14:40:24.450Z,7.76
2019-01-09T14:42:55.689Z,7.76
2019-01-09T14:45:25.269Z,7.74
2019-01-09T14:47:54.620Z,7.75
2019-01-09T14:50:24.934Z,7.76
2019-01-09T14:52:54.148Z,7.73
2019-01-09T14:55:27.175Z,7.72
2019-01-09T14:57:56.334Z,7.69
2019-01-09T15:00:27.524Z,7.67
2019-01-09T15:02:56.896Z,7.64
2019-01-09T15:05:26.817Z,7.62
2019-01-09T15:07:56.487Z,7.61
2019-01-09T15:10:28.418Z,7.60
2019-01-09T15:12:58.860Z,7.58
2019-01-09T15:15:28.372Z,7.56
2019-01-09T15:17:57.555Z,7.53
2019-01-09T15:20:28.871Z,7.48
2019-01-09T15:22:58.665Z,7.46
2019-01-09T15:25:29.107Z,7.43
2019-01-09T15:28:06.135Z,7.41
2019-01-09T15:30:35.813Z,7.39
2019-01-09T15:33:06.334Z,7.38
2019-01-09T15:35:35.521Z,7.36
2019-01-09T15:38:23.826Z,7.35
2019-01-09T15:40:53.007Z,7.33
2019-01-09T15:43:22.222Z,7.31
2019-01-09T15:45:52.431Z,7.29
2019-01-09T15:48:21.560Z,7.27
2019-01-09T15:50:52.001Z,7.25
2019-01-09T15:53:22.489Z,7.24
2019-01-09T15:55:51.793Z,7.21
2019-01-09T15:58:21.221Z,7.19
2019-01-09T16:00:53.529Z,7.16
2019-01-09T16:03:22.967Z,7.13
2019-01-09T16:05:53.390Z,7.11
2019-01-09T16:08:23.515Z,7.10
2019-01-09T16:10:52.728Z,7.07
2019-01-09T16:13:21.829Z,7.03
2019-01-09T16:15:51.648Z,7.00
2019-01-09T16:18:20.755Z,6.97
2019-01-09T16:20:50.338Z,6.95
2019-01-09T16:23:26.301Z,6.91
2019-01-09T16:25:55.681Z,6.88
2019-01-09T16:28:24.810Z,6.86
2019-01-09T16:31:11.916Z,6.82
2019-01-09T16:33:41.334Z,6.78
2019-01-09T16:36:10.762Z,6.73
2019-01-09T16:38:40.130Z,6.70
2019-01-09T16:41:09.328Z,6.67
2019-01-09T16:43:38.360Z,6.65
2019-01-09T16:46:08.247Z,6.62
2019-01-09T16:48:39.595Z,6.59
2019-01-09T16:51:06.746Z,6.55
2019-01-09T16:53:36.077Z,6.50
2019-01-09T16:56:05.801Z,6.45
2019-01-09T16:58:34.891Z,6.39
2019-01-09T17:01:05.436Z,6.32
2019-01-09T17:03:46.494Z,6.23
2019-01-09T17:06:15.700Z,6.09
2019-01-09T17:08:45.521Z,5.98
2019-01-09T17:11:15.642Z,5.89
2019-01-09T17:13:45.065Z,5.83
2019-01-09T17:16:14.203Z,5.77
2019-01-09T17:18:43.401Z,5.72
2019-01-09T17:21:12.682Z,5.65
2019-01-09T17:23:41.791Z,5.53
2019-01-09T17:26:11.070Z,5.41
2019-01-09T17:28:40.143Z,5.33
2019-01-09T17:31:09.290Z,5.25
2019-01-09T17:33:38.493Z,5.18
2019-01-09T17:36:08.933Z,5.13
2019-01-09T17:38:38.205Z,5.07
2019-01-09T17:41:07.432Z,4.98
2019-01-09T17:43:36.534Z,4.87
2019-01-09T17:46:05.817Z,4.80
2019-01-09T17:48:37.752Z,4.77
2019-01-09T17:51:06.974Z,4.74
2019-01-09T17:53:38.011Z,4.74
2019-01-09T17:56:07.105Z,4.71
2019-01-09T17:58:36.252Z,4.67
2019-01-09T18:01:05.430Z,4.65
2019-01-09T18:03:35.500Z,4.66
2019-01-09T18:06:05.722Z,4.65
2019-01-09T18:08:34.753Z,4.64
2019-01-09T18:11:03.935Z,4.60
2019-01-09T18:13:32.976Z,4.56
2019-01-09T18:16:02.157Z,4.54
2019-01-09T18:18:31.331Z,4.53
2019-01-09T18:21:00.513Z,4.47
2019-01-09T18:23:29.714Z,4.40
2019-01-09T18:25:58.852Z,4.33
2019-01-09T18:28:28.724Z,4.28
2019-01-09T18:31:12.641Z,4.22
2019-01-09T18:33:53.849Z,4.20
2019-01-09T18:36:39.097Z,4.20
2019-01-09T18:40:22.894Z,4.20
2019-01-09T18:43:03.761Z,4.22
2019-01-09T18:45:42.106Z,4.19
2019-01-09T18:48:24.922Z,4.11
2019-01-09T18:52:09.618Z,4.01
2019-01-09T18:54:39.026Z,3.92
2019-01-09T18:57:08.501Z,3.89
2019-01-09T18:59:37.625Z,3.86
2019-01-09T19:02:06.854Z,3.84
2019-01-09T19:04:36.124Z,3.83
2019-01-09T19:07:09.721Z,3.79
2019-01-09T19:09:39.030Z,3.71
2019-01-09T19:12:08.325Z,3.65
2019-01-09T19:14:37.395Z,3.58
2019-01-09T19:17:06.669Z,3.53
2019-01-09T19:19:36.024Z,3.52
2019-01-09T19:22:06.240Z,3.48
2019-01-09T19:24:35.337Z,3.38
2019-01-09T19:27:05.149Z,3.31
2019-01-09T19:29:34.325Z,3.25
2019-01-09T19:32:04.516Z,3.23
2019-01-09T19:34:33.639Z,3.25
2019-01-09T19:37:02.759Z,3.20
2019-01-09T19:39:31.837Z,3.09
2019-01-09T19:42:04.916Z,2.97
2019-01-09T19:44:34.967Z,2.88
2019-01-09T19:47:04.127Z,2.83
2019-01-09T19:49:33.513Z,2.76
2019-01-09T19:52:02.629Z,2.71
2019-01-09T19:54:31.679Z,2.67
2019-01-09T19:57:01.639Z,2.60
2019-01-09T19:59:31.491Z,2.53
2019-01-09T20:02:00.576Z,2.48
2019-01-09T20:04:29.966Z,2.44
2019-01-09T20:06:59.092Z,2.42
2019-01-09T20:09:28.267Z,2.38
2019-01-09T20:11:57.448Z,2.36
2019-01-09T20:14:29.083Z,2.35
2019-01-09T20:16:56.871Z,2.35
2019-01-09T20:19:25.994Z,2.33
2019-01-09T20:21:55.092Z,2.33
2019-01-09T20:24:24.189Z,2.32
2019-01-09T20:26:53.845Z,2.31
2019-01-09T20:29:23.119Z,2.32
2019-01-09T20:31:52.383Z,2.34
2019-01-09T20:34:21.585Z,2.33
2019-01-09T20:36:50.958Z,2.32
2019-01-09T20:39:20.044Z,2.33
2019-01-09T20:41:51.838Z,2.30
2019-01-09T20:44:20.961Z,2.28
2019-01-09T20:46:50.241Z,2.21
2019-01-09T20:49:24.924Z,2.18
2019-01-09T20:51:54.083Z,2.16
2019-01-09T20:54:23.167Z,2.11
2019-01-09T20:56:53.383Z,2.09
2019-01-09T20:59:22.502Z,2.12
2019-01-09T21:01:51.724Z,2.13
2019-01-09T21:04:20.891Z,2.14
2019-01-09T21:06:56.523Z,2.10
2019-01-09T21:09:29.747Z,2.06
2019-01-09T21:11:58.949Z,2.04
2019-01-09T21:14:33.654Z,2.00
2019-01-09T21:17:02.960Z,1.98
2019-01-09T21:19:37.732Z,1.99
2019-01-09T21:22:15.085Z,1.99
2019-01-09T21:24:43.850Z,1.96
2019-01-09T21:27:13.025Z,1.95
2019-01-09T21:29:42.131Z,1.95
2019-01-09T21:32:11.178Z,1.92
2019-01-09T21:34:40.335Z,1.85
2019-01-09T21:37:09.532Z,1.79
2019-01-09T21:39:38.699Z,1.75
2019-01-09T21:42:07.931Z,1.73
2019-01-09T21:44:37.229Z,1.69
2019-01-09T21:47:07.005Z,1.65
2019-01-09T21:49:36.336Z,1.68
2019-01-09T21:52:06.255Z,1.71
2019-01-09T21:54:35.348Z,1.69
2019-01-09T21:57:04.771Z,1.65
2019-01-09T21:59:35.284Z,1.64
2019-01-09T22:02:04.482Z,1.61
2019-01-09T22:04:33.571Z,1.62
2019-01-09T22:07:02.880Z,1.64
2019-01-09T22:09:32.099Z,1.64
2019-01-09T22:12:02.655Z,1.58
2019-01-09T22:14:30.409Z,1.48
2019-01-09T22:16:59.978Z,1.41
2019-01-09T22:19:30.003Z,1.40
2019-01-09T22:21:59.075Z,1.43
2019-01-09T22:24:28.143Z,1.48
2019-01-09T22:26:57.363Z,1.51
2019-01-09T22:29:26.458Z,1.53
2019-01-09T22:31:55.661Z,1.57
2019-01-09T22:34:24.906Z,1.59
2019-01-09T22:36:53.954Z,1.60
2019-01-09T22:39:23.162Z,1.59
2019-01-09T22:41:52.454Z,1.60
2019-01-09T22:44:21.525Z,1.60
2019-01-09T22:46:50.740Z,1.58
2019-01-09T22:49:19.838Z,1.58
2019-01-09T22:51:49.035Z,1.60
2019-01-09T22:54:18.142Z,1.64
2019-01-09T22:56:47.235Z,1.67
2019-01-09T22:59:17.446Z,1.65
2019-01-09T23:01:46.544Z,1.65
2019-01-09T23:04:15.867Z,1.68
2019-01-09T23:06:45.035Z,1.65
2019-01-09T23:09:16.035Z,1.57
2019-01-09T23:11:48.805Z,1.54
2019-01-09T23:14:19.120Z,1.53
2019-01-09T23:16:48.305Z,1.52
2019-01-09T23:19:19.739Z,1.51
2019-01-09T23:21:49.730Z,1.47
2019-01-09T23:24:19.114Z,1.43
2019-01-09T23:26:48.228Z,1.42
2019-01-09T23:29:17.264Z,1.41
2019-01-09T23:31:46.356Z,1.36
2019-01-09T23:34:15.467Z,1.27
2019-01-09T23:36:44.507Z,1.21
2019-01-09T23:39:13.527Z,1.17
2019-01-09T23:41:42.618Z,1.15
2019-01-09T23:44:11.752Z,1.16
2019-01-09T23:46:40.893Z,1.19
2019-01-09T23:49:10.020Z,1.17
2019-01-09T23:51:39.221Z,1.20
2019-01-09T23:54:08.297Z,1.23
2019-01-09T23:56:37.391Z,1.25
2019-01-09T23:59:06.472Z,1.27
